createdAt,value
2023-05-21T00:00:22.552Z,96.30
2023-05-21T00:02:49.459Z,96.40
2023-05-21T00:05:18.310Z,96.50
2023-05-21T00:07:45.874Z,96.50
2023-05-21T00:10:13.048Z,96.80
2023-05-21T00:12:40.197Z,96.70
2023-05-21T00:15:07.224Z,96.90
2023-05-21T00:17:36.789Z,97.00
2023-05-21T00:20:07.172Z,97.10
2023-05-21T00:22:33.814Z,97.10
2023-05-21T00:25:00.510Z,96.90
2023-05-21T00:27:27.114Z,97.00
2023-05-21T00:29:53.747Z,96.90
2023-05-21T00:32:20.382Z,97.00
2023-05-21T00:34:47.317Z,97.00
2023-05-21T00:37:15.219Z,97.00
2023-05-21T00:39:41.996Z,97.40
2023-05-21T00:42:08.615Z,97.10
2023-05-21T00:44:35.386Z,97.20
2023-05-21T00:47:02.403Z,97.30
2023-05-21T00:49:29.145Z,97.50
2023-05-21T00:51:55.835Z,97.30
2023-05-21T00:54:23.612Z,97.50
2023-05-21T00:56:50.691Z,97.50
2023-05-21T00:59:17.755Z,97.70
2023-05-21T01:01:45.588Z,97.70
2023-05-21T01:04:13.120Z,97.70
2023-05-21T01:06:39.755Z,97.80
2023-05-21T01:09:07.228Z,97.90
2023-05-21T01:11:44.713Z,97.90
2023-05-21T01:14:12.708Z,97.80
2023-05-21T01:16:41.041Z,98.00
2023-05-21T01:19:10.273Z,98.10
2023-05-21T01:21:37.672Z,98.00
2023-05-21T01:24:05.540Z,98.00
2023-05-21T01:26:33.732Z,97.90
2023-05-21T01:29:00.410Z,98.10
2023-05-21T01:31:31.657Z,98.00
2023-05-21T01:34:00.863Z,98.10
2023-05-21T01:36:32.834Z,98.30
2023-05-21T01:38:59.481Z,98.30
2023-05-21T01:41:28.009Z,98.50
2023-05-21T01:43:56.233Z,98.40
2023-05-21T01:46:25.121Z,98.40
2023-05-21T01:48:52.700Z,98.50
2023-05-21T01:51:19.469Z,98.50
2023-05-21T01:53:46.167Z,98.90
2023-05-21T01:56:12.856Z,98.60
2023-05-21T01:58:39.483Z,98.60
2023-05-21T02:01:06.143Z,98.90
2023-05-21T02:03:32.936Z,98.80
2023-05-21T02:05:59.626Z,98.70
2023-05-21T02:08:27.309Z,98.80
2023-05-21T02:10:53.981Z,99.00
2023-05-21T02:13:23.046Z,99.10
2023-05-21T02:15:54.753Z,99.30
2023-05-21T02:18:21.935Z,99.20
2023-05-21T02:20:48.636Z,99.30
2023-05-21T02:23:15.632Z,99.20
2023-05-21T02:25:42.559Z,99.20
2023-05-21T02:28:09.208Z,99.40
2023-05-21T02:30:36.479Z,99.50
2023-05-21T02:33:03.225Z,99.70
2023-05-21T02:35:29.928Z,99.70
2023-05-21T02:37:59.196Z,99.70
2023-05-21T02:40:26.147Z,99.70
2023-05-21T02:42:52.811Z,99.80
2023-05-21T02:45:19.430Z,99.90
2023-05-21T02:47:46.137Z,99.90
2023-05-21T02:50:13.615Z,99.90
2023-05-21T02:52:41.583Z,99.90
2023-05-21T02:55:08.457Z,99.80
2023-05-21T02:57:35.121Z,99.90
2023-05-21T03:00:01.750Z,99.90
2023-05-21T03:02:28.485Z,99.90
2023-05-21T03:04:55.518Z,99.90
2023-05-21T03:07:22.435Z,99.90
2023-05-21T03:09:49.099Z,99.90
2023-05-21T03:12:15.771Z,99.90
2023-05-21T03:14:44.002Z,99.90
2023-05-21T03:17:13.964Z,99.90
2023-05-21T03:19:41.689Z,99.90
2023-05-21T03:22:08.670Z,99.90
2023-05-21T03:24:36.621Z,99.90
2023-05-21T03:27:03.429Z,99.90
2023-05-21T03:29:30.152Z,99.90
2023-05-21T03:31:57.061Z,99.90
2023-05-21T03:34:24.258Z,99.90
2023-05-21T03:36:50.981Z,99.90
2023-05-21T03:39:17.819Z,99.90
2023-05-21T03:41:44.783Z,99.90
2023-05-21T03:44:11.445Z,99.90
2023-05-21T03:46:38.261Z,99.90
2023-05-21T03:49:05.072Z,99.90
2023-05-21T03:51:31.844Z,99.90
2023-05-21T03:53:59.127Z,99.90
2023-05-21T03:56:26.242Z,99.90
2023-05-21T03:58:53.110Z,99.90
2023-05-21T04:01:19.791Z,99.90
2023-05-21T04:03:46.714Z,99.90
2023-05-21T04:06:13.565Z,99.90
2023-05-21T04:08:40.214Z,99.90
2023-05-21T04:11:06.821Z,99.90
2023-05-21T04:13:33.440Z,99.90
2023-05-21T04:16:00.224Z,99.90
2023-05-21T04:18:27.062Z,99.90
2023-05-21T04:20:53.851Z,99.90
2023-05-21T04:23:23.513Z,99.90
2023-05-21T04:25:50.789Z,99.90
2023-05-21T04:28:20.988Z,99.90
2023-05-21T04:30:47.804Z,99.90
2023-05-21T04:33:18.076Z,99.90
2023-05-21T04:35:46.213Z,99.90
2023-05-21T04:38:12.850Z,99.90
2023-05-21T04:40:40.588Z,99.90
2023-05-21T04:43:08.138Z,99.90
2023-05-21T04:45:35.273Z,99.90
2023-05-21T04:48:02.793Z,99.90
2023-05-21T04:50:30.854Z,99.90
2023-05-21T04:52:59.556Z,99.90
2023-05-21T04:55:27.457Z,99.90
2023-05-21T04:57:54.248Z,99.90
2023-05-21T05:00:21.018Z,99.90
2023-05-21T05:02:47.723Z,99.90
2023-05-21T05:05:14.395Z,99.90
2023-05-21T05:07:41.050Z,99.90
2023-05-21T05:10:08.152Z,99.90
2023-05-21T05:12:34.879Z,99.90
2023-05-21T05:15:01.623Z,99.90
2023-05-21T05:17:28.362Z,99.90
2023-05-21T05:19:55.134Z,99.90
2023-05-21T05:22:21.757Z,99.90
2023-05-21T05:24:48.401Z,99.90
2023-05-21T05:27:15.012Z,99.90
2023-05-21T05:29:41.647Z,99.90
2023-05-21T05:32:08.284Z,99.90
2023-05-21T05:34:34.975Z,99.90
2023-05-21T05:37:02.879Z,99.90
2023-05-21T05:39:29.630Z,99.90
2023-05-21T05:41:56.285Z,99.90
2023-05-21T05:44:23.030Z,99.80
2023-05-21T05:46:49.784Z,99.90
2023-05-21T05:49:16.782Z,99.90
2023-05-21T05:51:43.419Z,99.90
2023-05-21T05:54:10.089Z,99.80
2023-05-21T05:56:36.687Z,99.90
2023-05-21T05:59:03.404Z,99.90
2023-05-21T06:01:30.072Z,99.90
2023-05-21T06:03:57.449Z,99.90
2023-05-21T06:06:24.301Z,99.70
2023-05-21T06:08:51.026Z,99.30
2023-05-21T06:11:18.964Z,99.90
2023-05-21T06:13:46.102Z,99.80
2023-05-21T06:16:13.034Z,99.80
2023-05-21T06:18:39.797Z,99.00
2023-05-21T06:21:06.532Z,99.00
2023-05-21T06:23:33.219Z,98.90
2023-05-21T06:25:59.847Z,98.60
2023-05-21T06:28:26.457Z,98.50
2023-05-21T06:30:53.150Z,98.50
2023-05-21T06:33:19.847Z,98.80
2023-05-21T06:35:46.729Z,98.90
2023-05-21T06:38:13.381Z,99.20
2023-05-21T06:40:40.004Z,99.00
2023-05-21T06:43:06.727Z,98.90
2023-05-21T06:45:33.484Z,99.10
2023-05-21T06:48:00.289Z,98.60
2023-05-21T06:50:27.065Z,98.80
2023-05-21T06:52:53.678Z,99.00
2023-05-21T06:55:20.371Z,99.10
2023-05-21T06:57:47.074Z,99.40
2023-05-21T07:00:14.003Z,99.00
2023-05-21T07:02:40.752Z,99.20
2023-05-21T07:05:07.573Z,98.90
2023-05-21T07:07:34.945Z,98.60
2023-05-21T07:10:01.633Z,98.80
2023-05-21T07:12:28.286Z,98.80
2023-05-21T07:14:55.357Z,98.50
2023-05-21T07:17:22.798Z,98.60
2023-05-21T07:19:49.433Z,98.70
2023-05-21T07:22:16.098Z,98.50
2023-05-21T07:24:42.755Z,99.00
2023-05-21T07:27:24.247Z,98.20
2023-05-21T07:29:52.121Z,98.20
2023-05-21T07:32:18.820Z,99.20
2023-05-21T07:34:45.685Z,97.70
2023-05-21T07:37:12.957Z,97.60
2023-05-21T07:39:39.843Z,97.50
2023-05-21T07:42:06.474Z,97.00
2023-05-21T07:44:33.086Z,97.70
2023-05-21T07:46:59.738Z,96.60
2023-05-21T07:49:26.375Z,95.90
2023-05-21T07:51:53.039Z,96.00
2023-05-21T07:54:19.789Z,95.90
2023-05-21T07:56:46.539Z,95.20
2023-05-21T07:59:17.052Z,95.30
2023-05-21T08:01:44.201Z,95.20
2023-05-21T08:04:11.121Z,95.20
2023-05-21T08:06:37.937Z,96.20
2023-05-21T08:09:06.163Z,94.70
2023-05-21T08:11:33.172Z,94.60
2023-05-21T08:13:59.990Z,93.90
2023-05-21T08:16:26.821Z,95.00
2023-05-21T08:18:53.591Z,93.30
2023-05-21T08:21:20.365Z,93.20
2023-05-21T08:23:47.070Z,93.70
2023-05-21T08:26:16.323Z,92.70
2023-05-21T08:28:43.320Z,92.40
2023-05-21T08:31:10.033Z,92.30
2023-05-21T08:33:39.357Z,92.60
2023-05-21T08:36:06.744Z,92.40
2023-05-21T08:38:34.122Z,91.90
2023-05-21T08:41:01.024Z,91.70
2023-05-21T08:43:28.204Z,91.50
2023-05-21T08:45:55.713Z,91.40
2023-05-21T08:48:23.450Z,90.80
2023-05-21T08:50:53.438Z,90.50
2023-05-21T08:53:28.050Z,90.60
2023-05-21T08:55:56.175Z,89.60
2023-05-21T08:58:22.986Z,90.30
2023-05-21T09:00:49.864Z,89.70
2023-05-21T09:03:16.694Z,90.30
2023-05-21T09:05:44.069Z,90.10
2023-05-21T09:08:21.755Z,90.10
2023-05-21T09:10:50.199Z,90.10
2023-05-21T09:13:17.352Z,89.20
2023-05-21T09:15:44.715Z,87.10
2023-05-21T09:18:12.305Z,86.60
2023-05-21T09:20:39.072Z,86.30
2023-05-21T09:23:06.777Z,86.60
2023-05-21T09:25:33.521Z,84.50
2023-05-21T09:28:00.193Z,84.70
2023-05-21T09:30:29.746Z,85.90
2023-05-21T09:32:58.374Z,85.00
2023-05-21T09:35:25.052Z,82.60
2023-05-21T09:37:52.492Z,81.60
2023-05-21T09:40:22.955Z,79.60
2023-05-21T09:42:53.885Z,78.40
2023-05-21T09:45:23.401Z,76.90
2023-05-21T09:47:50.939Z,76.60
2023-05-21T09:50:18.997Z,80.90
2023-05-21T09:52:45.825Z,76.70
2023-05-21T09:55:13.223Z,75.90
2023-05-21T09:57:42.993Z,74.80
2023-05-21T10:00:22.855Z,76.50
2023-05-21T10:02:50.709Z,73.00
2023-05-21T10:05:17.637Z,70.80
2023-05-21T10:07:54.407Z,71.80
2023-05-21T10:10:22.633Z,72.10
2023-05-21T10:12:54.708Z,73.70
2023-05-21T10:15:23.667Z,72.40
2023-05-21T10:17:50.428Z,72.30
2023-05-21T10:20:17.472Z,71.10
2023-05-21T10:22:44.517Z,71.50
2023-05-21T10:25:12.980Z,72.00
2023-05-21T10:27:39.926Z,71.00
2023-05-21T10:30:06.936Z,72.00
2023-05-21T10:32:33.887Z,71.70
2023-05-21T10:35:02.267Z,70.90
2023-05-21T10:37:29.079Z,71.20
2023-05-21T10:39:56.329Z,70.00
2023-05-21T10:42:25.784Z,69.70
2023-05-21T10:45:04.738Z,69.70
2023-05-21T10:47:31.354Z,70.80
2023-05-21T10:50:30.302Z,69.60
2023-05-21T10:53:11.110Z,70.30
2023-05-21T10:55:47.116Z,69.90
2023-05-21T10:58:28.023Z,71.10
2023-05-21T11:00:56.908Z,70.40
2023-05-21T11:03:23.820Z,70.10
2023-05-21T11:05:53.638Z,69.70
2023-05-21T11:08:31.810Z,71.00
2023-05-21T11:10:58.935Z,72.30
2023-05-21T11:13:26.323Z,72.40
2023-05-21T11:15:59.228Z,71.40
2023-05-21T11:18:35.131Z,70.20
2023-05-21T11:21:05.960Z,71.00
2023-05-21T11:23:50.989Z,70.00
2023-05-21T11:26:18.312Z,68.90
2023-05-21T11:28:45.018Z,68.30
2023-05-21T11:31:27.084Z,68.60
2023-05-21T11:34:11.877Z,68.30
2023-05-21T11:36:39.232Z,67.90
2023-05-21T11:39:10.758Z,67.10
2023-05-21T11:41:50.244Z,68.40
2023-05-21T11:44:17.015Z,67.80
2023-05-21T11:46:43.710Z,67.80
2023-05-21T11:49:10.510Z,67.90
2023-05-21T11:51:37.127Z,66.60
2023-05-21T11:54:03.949Z,66.80
2023-05-21T11:56:31.870Z,66.20
2023-05-21T11:59:01.873Z,65.60
2023-05-21T12:01:31.066Z,65.80
2023-05-21T12:03:57.890Z,64.80
2023-05-21T12:06:27.863Z,63.90
2023-05-21T12:08:58.141Z,67.10
2023-05-21T12:11:24.903Z,64.10
2023-05-21T12:13:51.536Z,62.80
2023-05-21T12:16:18.282Z,63.20
2023-05-21T12:18:45.014Z,64.00
2023-05-21T12:21:12.686Z,63.20
2023-05-21T12:23:39.343Z,64.50
2023-05-21T12:26:06.019Z,65.40
2023-05-21T12:28:32.644Z,63.60
2023-05-21T12:30:59.266Z,62.50
2023-05-21T12:33:33.008Z,63.50
2023-05-21T12:35:59.754Z,62.90
2023-05-21T12:38:30.618Z,62.00
2023-05-21T12:41:03.085Z,62.90
2023-05-21T12:43:32.994Z,63.20
2023-05-21T12:45:59.688Z,61.90
2023-05-21T12:48:26.348Z,62.80
2023-05-21T12:50:53.006Z,62.50
2023-05-21T12:53:19.669Z,63.20
2023-05-21T12:55:46.416Z,62.40
2023-05-21T12:58:13.585Z,63.80
2023-05-21T13:00:41.859Z,64.20
2023-05-21T13:03:08.661Z,63.20
2023-05-21T13:05:35.656Z,62.40
2023-05-21T13:08:02.655Z,62.30
2023-05-21T13:10:29.283Z,62.30
2023-05-21T13:12:56.005Z,62.10
2023-05-21T13:15:22.667Z,61.50
2023-05-21T13:17:50.842Z,63.30
2023-05-21T13:20:21.679Z,62.60
2023-05-21T13:22:50.009Z,62.30
2023-05-21T13:25:18.851Z,63.80
2023-05-21T13:27:46.081Z,62.70
2023-05-21T13:30:13.068Z,63.90
2023-05-21T13:32:40.288Z,63.30
2023-05-21T13:35:07.334Z,61.70
2023-05-21T13:37:37.418Z,62.30
2023-05-21T13:40:04.719Z,61.00
2023-05-21T13:42:31.344Z,63.10
2023-05-21T13:44:58.251Z,64.60
2023-05-21T13:47:25.029Z,62.70
2023-05-21T13:49:51.883Z,63.00
2023-05-21T13:52:18.522Z,62.90
2023-05-21T13:54:45.124Z,63.10
2023-05-21T13:57:11.780Z,62.10
2023-05-21T13:59:40.418Z,63.10
2023-05-21T14:02:08.858Z,62.30
2023-05-21T14:04:37.856Z,62.00
2023-05-21T14:07:06.504Z,63.30
2023-05-21T14:09:33.143Z,62.00
2023-05-21T14:11:59.879Z,63.10
2023-05-21T14:14:26.527Z,63.40
2023-05-21T14:16:53.253Z,62.60
2023-05-21T14:19:20.384Z,60.80
2023-05-21T14:21:47.046Z,61.30
2023-05-21T14:24:13.781Z,61.30
2023-05-21T14:26:41.008Z,61.30
2023-05-21T14:29:08.054Z,61.50
2023-05-21T14:31:34.839Z,60.30
2023-05-21T14:34:02.840Z,60.10
2023-05-21T14:36:29.753Z,60.90
2023-05-21T14:38:56.498Z,59.70
2023-05-21T14:41:29.048Z,60.50
2023-05-21T14:43:55.741Z,60.70
2023-05-21T14:46:22.790Z,59.70
2023-05-21T14:48:49.677Z,60.10
2023-05-21T14:51:16.430Z,59.50
2023-05-21T14:53:43.068Z,59.50
2023-05-21T14:56:09.773Z,59.90
2023-05-21T14:58:36.405Z,60.10
2023-05-21T15:01:04.228Z,60.10
2023-05-21T15:03:31.070Z,59.50
2023-05-21T15:05:58.507Z,61.70
2023-05-21T15:08:25.331Z,60.80
2023-05-21T15:10:52.158Z,60.50
2023-05-21T15:13:18.844Z,60.20
2023-05-21T15:15:45.581Z,60.10
2023-05-21T15:18:12.306Z,60.60
2023-05-21T15:20:38.935Z,60.00
2023-05-21T15:23:16.121Z,59.20
2023-05-21T15:25:43.818Z,60.40
2023-05-21T15:28:11.783Z,62.00
2023-05-21T15:30:38.429Z,62.40
2023-05-21T15:33:05.148Z,62.90
2023-05-21T15:35:31.912Z,61.90
2023-05-21T15:37:58.709Z,62.30
2023-05-21T15:40:27.103Z,62.80
2023-05-21T15:42:54.252Z,61.70
2023-05-21T15:45:21.321Z,61.70
2023-05-21T15:47:48.062Z,62.00
2023-05-21T15:50:14.808Z,61.50
2023-05-21T15:52:41.812Z,61.70
2023-05-21T15:55:08.809Z,61.50
2023-05-21T15:57:35.547Z,63.40
2023-05-21T16:00:02.469Z,63.30
2023-05-21T16:02:29.239Z,61.80
2023-05-21T16:04:55.971Z,61.10
2023-05-21T16:07:23.483Z,60.80
2023-05-21T16:09:50.613Z,60.90
2023-05-21T16:12:17.590Z,61.30
2023-05-21T16:14:44.251Z,61.00
2023-05-21T16:17:11.125Z,62.30
2023-05-21T16:19:38.014Z,62.00
2023-05-21T16:22:04.882Z,61.80
2023-05-21T16:24:31.590Z,62.00
2023-05-21T16:26:58.396Z,63.90
2023-05-21T16:29:25.001Z,62.00
2023-05-21T16:31:51.731Z,62.00
2023-05-21T16:34:18.489Z,62.10
2023-05-21T16:36:45.790Z,62.00
2023-05-21T16:39:12.486Z,62.40
2023-05-21T16:41:39.202Z,61.70
2023-05-21T16:44:05.976Z,61.60
2023-05-21T16:46:32.691Z,61.60
2023-05-21T16:48:59.485Z,61.20
2023-05-21T16:51:26.149Z,63.80
2023-05-21T16:53:52.879Z,60.60
2023-05-21T16:56:19.543Z,62.10
2023-05-21T16:58:46.165Z,61.60
2023-05-21T17:01:13.219Z,62.00
2023-05-21T17:03:43.070Z,61.10
2023-05-21T17:06:10.117Z,60.50
2023-05-21T17:08:36.762Z,61.10
2023-05-21T17:11:03.510Z,61.20
2023-05-21T17:13:30.261Z,62.20
2023-05-21T17:15:56.942Z,61.40
2023-05-21T17:18:23.603Z,62.30
2023-05-21T17:20:50.385Z,62.40
2023-05-21T17:23:17.273Z,62.70
2023-05-21T17:25:44.184Z,62.60
2023-05-21T17:28:11.277Z,62.40
2023-05-21T17:30:37.946Z,61.90
2023-05-21T17:33:04.687Z,62.60
2023-05-21T17:35:31.419Z,61.90
2023-05-21T17:37:58.155Z,62.40
2023-05-21T17:40:25.240Z,62.60
2023-05-21T17:42:52.610Z,62.80
2023-05-21T17:45:19.682Z,63.10
2023-05-21T17:47:46.556Z,63.00
2023-05-21T17:50:13.320Z,63.70
2023-05-21T17:52:39.988Z,63.30
2023-05-21T17:55:07.909Z,63.20
2023-05-21T17:57:36.024Z,64.00
2023-05-21T18:00:04.918Z,62.90
2023-05-21T18:02:31.674Z,64.00
2023-05-21T18:04:58.524Z,63.00
2023-05-21T18:07:25.577Z,63.30
2023-05-21T18:09:52.210Z,62.80
2023-05-21T18:12:19.052Z,62.90
2023-05-21T18:14:45.845Z,62.70
2023-05-21T18:17:12.763Z,63.10
2023-05-21T18:19:39.435Z,64.80
2023-05-21T18:22:06.164Z,63.20
2023-05-21T18:24:32.839Z,62.70
2023-05-21T18:26:59.570Z,62.90
2023-05-21T18:29:26.279Z,63.50
2023-05-21T18:31:52.951Z,63.70
2023-05-21T18:34:19.760Z,63.20
2023-05-21T18:36:46.676Z,63.70
2023-05-21T18:39:13.350Z,63.20
2023-05-21T18:41:40.067Z,63.70
2023-05-21T18:44:06.865Z,64.00
2023-05-21T18:46:33.614Z,64.30
2023-05-21T18:49:00.797Z,64.80
2023-05-21T18:51:27.558Z,64.40
2023-05-21T18:53:54.169Z,65.40
2023-05-21T18:56:21.939Z,64.70
2023-05-21T18:58:48.736Z,66.20
2023-05-21T19:01:16.072Z,65.30
2023-05-21T19:03:42.795Z,65.20
2023-05-21T19:06:09.531Z,67.70
2023-05-21T19:08:36.205Z,65.70
2023-05-21T19:11:03.231Z,65.90
2023-05-21T19:13:30.127Z,66.40
2023-05-21T19:15:58.305Z,65.90
2023-05-21T19:18:30.282Z,66.80
2023-05-21T19:20:57.233Z,66.20
2023-05-21T19:23:24.678Z,69.20
2023-05-21T19:25:51.602Z,68.70
2023-05-21T19:28:18.802Z,68.00
2023-05-21T19:30:46.211Z,67.60
2023-05-21T19:33:13.624Z,67.70
2023-05-21T19:35:41.990Z,67.70
2023-05-21T19:38:11.765Z,70.40
2023-05-21T19:40:38.652Z,68.90
2023-05-21T19:43:05.621Z,69.20
2023-05-21T19:45:32.667Z,72.00
2023-05-21T19:47:59.918Z,68.10
2023-05-21T19:50:28.779Z,71.40
2023-05-21T19:52:57.274Z,69.20
2023-05-21T19:55:24.801Z,69.20
2023-05-21T19:57:52.026Z,70.00
2023-05-21T20:00:18.933Z,71.40
2023-05-21T20:02:46.265Z,70.30
2023-05-21T20:05:13.209Z,68.70
2023-05-21T20:07:40.018Z,69.10
2023-05-21T20:10:07.391Z,72.00
2023-05-21T20:12:34.102Z,70.20
2023-05-21T20:15:00.987Z,69.40
2023-05-21T20:17:28.716Z,70.60
2023-05-21T20:19:57.237Z,71.00
2023-05-21T20:22:23.986Z,69.70
2023-05-21T20:24:50.687Z,69.50
2023-05-21T20:27:19.382Z,71.40
2023-05-21T20:29:46.258Z,70.70
2023-05-21T20:32:13.024Z,69.30
2023-05-21T20:34:54.228Z,69.40
2023-05-21T20:37:29.080Z,68.90
2023-05-21T20:39:57.722Z,69.70
2023-05-21T20:42:28.595Z,69.40
2023-05-21T20:44:55.455Z,70.70
2023-05-21T20:47:23.293Z,71.20
2023-05-21T20:49:53.723Z,73.50
2023-05-21T20:52:20.586Z,70.90
2023-05-21T20:54:48.819Z,70.80
2023-05-21T20:57:15.510Z,70.20
2023-05-21T20:59:42.305Z,71.10
2023-05-21T21:02:10.860Z,71.10
2023-05-21T21:04:37.919Z,70.10
2023-05-21T21:07:07.820Z,70.40
2023-05-21T21:09:34.475Z,69.70
2023-05-21T21:12:06.137Z,72.20
2023-05-21T21:14:38.132Z,70.00
2023-05-21T21:17:04.762Z,69.80
2023-05-21T21:19:31.469Z,70.00
2023-05-21T21:21:58.396Z,70.60
2023-05-21T21:24:25.095Z,70.70
2023-05-21T21:26:51.677Z,70.50
2023-05-21T21:29:18.353Z,70.00
2023-05-21T21:31:47.413Z,71.20
2023-05-21T21:34:14.304Z,70.60
2023-05-21T21:36:40.932Z,70.90
2023-05-21T21:39:07.757Z,69.80
2023-05-21T21:41:34.396Z,70.80
2023-05-21T21:44:01.061Z,71.30
2023-05-21T21:46:27.817Z,70.00
2023-05-21T21:48:54.535Z,70.30
2023-05-21T21:51:23.136Z,70.90
2023-05-21T21:53:50.521Z,73.80
2023-05-21T21:56:17.306Z,71.70
2023-05-21T21:58:44.144Z,70.00
2023-05-21T22:01:10.949Z,69.80
2023-05-21T22:03:37.607Z,69.80
2023-05-21T22:06:04.375Z,69.60
2023-05-21T22:08:30.984Z,70.50
2023-05-21T22:10:57.613Z,69.80
2023-05-21T22:13:24.655Z,70.20
2023-05-21T22:15:51.577Z,70.40
2023-05-21T22:18:28.333Z,69.40
2023-05-21T22:21:03.790Z,70.90
2023-05-21T22:23:30.467Z,69.40
2023-05-21T22:25:57.101Z,69.20
2023-05-21T22:28:23.681Z,69.40
2023-05-21T22:30:50.409Z,68.90
2023-05-21T22:33:17.196Z,70.10
2023-05-21T22:35:43.925Z,70.00
2023-05-21T22:38:10.564Z,69.50
2023-05-21T22:40:38.121Z,68.80
2023-05-21T22:43:05.244Z,68.70
2023-05-21T22:45:31.916Z,69.60
2023-05-21T22:48:01.561Z,70.20
2023-05-21T22:50:29.374Z,69.80
2023-05-21T22:52:56.143Z,69.30
2023-05-21T22:55:22.771Z,70.30
2023-05-21T22:57:49.431Z,71.90
2023-05-21T23:00:19.032Z,69.40
2023-05-21T23:02:46.858Z,69.20
2023-05-21T23:05:13.857Z,69.30
2023-05-21T23:07:41.273Z,69.20
2023-05-21T23:10:08.223Z,68.60
2023-05-21T23:12:34.917Z,69.10
2023-05-21T23:15:02.798Z,69.30
2023-05-21T23:17:29.499Z,68.70
2023-05-21T23:19:56.319Z,70.20
2023-05-21T23:22:22.971Z,68.00
2023-05-21T23:24:50.979Z,69.80
2023-05-21T23:27:17.626Z,68.90
2023-05-21T23:29:44.291Z,68.40
2023-05-21T23:32:11.102Z,67.60
2023-05-21T23:34:37.994Z,68.50
2023-05-21T23:37:04.763Z,68.10
2023-05-21T23:39:31.406Z,68.50
2023-05-21T23:41:58.073Z,67.40
2023-05-21T23:44:24.733Z,68.10
2023-05-21T23:46:51.708Z,68.60
2023-05-21T23:49:18.349Z,69.80
2023-05-21T23:51:45.058Z,67.40
2023-05-21T23:54:15.104Z,68.10
2023-05-21T23:56:42.580Z,67.80
2023-05-21T23:59:09.586Z,67.80
